DLH461 KMIA-EDDM
Flight info
| Callsign | DLH461 |
|---|---|
| Flight time | N/A |
| Altitude | 35000 |
| Route | FOLZZ3 SUMRS M204 BEXUM/M078F370 M204 SOORY NATZ GUNSO DCT GAPLI DCT SIDDI DCT DAWLY DCT GIBSO L620 SAM M140 DVR UL9 KONAN UL607 KOK DCT REMBA DCT SPI DCT MOVUM T109 HAREM T104 ELMOX T104 ROKIL |
| Aircraft | A343/H-SDE2E3FGHIJ4J5M1RWXY/LB1D1 |
Departure
| Time | 2026-05-04 21:07 |
|---|---|
| Airport | Miami International Airport (KMIA) |
Arrival
| Time | N/A |
|---|---|
| Airport | Munich Airport (EDDM) |
| Time | Latitude | Longitude | Altitude | Speed | Heading |
|---|---|---|---|---|---|
| 2026-05-04 20:32 | 25.79007 | -80.27394 | 20 ft | 0 kts | 47° |
| 2026-05-04 20:51 | 25.79013 | -80.27386 | 20 ft | 2 kts | 47° |
| 2026-05-04 20:51 | 25.79014 | -80.27385 | 21 ft | 4 kts | 46° |
| 2026-05-04 20:51 | 25.78995 | -80.27407 | 21 ft | 4 kts | 43° |
| 2026-05-04 20:51 | 25.78975 | -80.27427 | 22 ft | 4 kts | 38° |
| 2026-05-04 20:52 | 25.78953 | -80.27444 | 21 ft | 4 kts | 30° |
| 2026-05-04 20:52 | 25.78929 | -80.27455 | 19 ft | 4 kts | 0° |
| 2026-05-04 20:52 | 25.78914 | -80.27451 | 22 ft | 0 kts | 312° |
| 2026-05-04 20:52 | 25.78922 | -80.27462 | 22 ft | 1 kts | 312° |
| 2026-05-04 20:56 | 25.78924 | -80.27466 | 18 ft | 1 kts | 298° |
| 2026-05-04 20:56 | 25.78920 | -80.27485 | 18 ft | 6 kts | 263° |
| 2026-05-04 20:56 | 25.78910 | -80.27581 | 18 ft | 19 kts | 264° |
| 2026-05-04 20:57 | 25.78884 | -80.27750 | 18 ft | 23 kts | 259° |
| 2026-05-04 20:57 | 25.78870 | -80.27917 | 19 ft | 21 kts | 267° |
| 2026-05-04 20:57 | 25.78912 | -80.28030 | 20 ft | 15 kts | 296° |
| 2026-05-04 20:57 | 25.78959 | -80.28135 | 19 ft | 15 kts | 297° |
| 2026-05-04 20:58 | 25.79017 | -80.28236 | 19 ft | 16 kts | 303° |
| 2026-05-04 20:58 | 25.79071 | -80.28341 | 19 ft | 16 kts | 299° |
| 2026-05-04 20:58 | 25.79135 | -80.28446 | 18 ft | 17 kts | 308° |
| 2026-05-04 20:58 | 25.79199 | -80.28558 | 18 ft | 17 kts | 300° |
| 2026-05-04 20:59 | 25.79260 | -80.28678 | 18 ft | 18 kts | 299° |
| 2026-05-04 20:59 | 25.79321 | -80.28802 | 18 ft | 19 kts | 298° |
| 2026-05-04 20:59 | 25.79386 | -80.28923 | 18 ft | 18 kts | 301° |
| 2026-05-04 20:59 | 25.79450 | -80.29046 | 18 ft | 19 kts | 299° |
| 2026-05-04 21:00 | 25.79514 | -80.29174 | 18 ft | 19 kts | 298° |
| 2026-05-04 21:00 | 25.79578 | -80.29300 | 18 ft | 19 kts | 300° |
| 2026-05-04 21:00 | 25.79643 | -80.29429 | 18 ft | 20 kts | 298° |
| 2026-05-04 21:00 | 25.79709 | -80.29561 | 18 ft | 20 kts | 299° |
| 2026-05-04 21:01 | 25.79775 | -80.29693 | 17 ft | 18 kts | 299° |
| 2026-05-04 21:01 | 25.79821 | -80.29783 | 17 ft | 12 kts | 300° |
| 2026-05-04 21:01 | 25.79862 | -80.29863 | 17 ft | 12 kts | 300° |
| 2026-05-04 21:01 | 25.79904 | -80.29943 | 17 ft | 11 kts | 300° |
| 2026-05-04 21:02 | 25.79916 | -80.29966 | 24 ft | 0 kts | 300° |
| 2026-05-04 21:04 | 25.79921 | -80.29976 | 23 ft | 6 kts | 300° |
| 2026-05-04 21:04 | 25.79955 | -80.30041 | 17 ft | 11 kts | 300° |
| 2026-05-04 21:04 | 25.79994 | -80.30115 | 17 ft | 10 kts | 307° |
| 2026-05-04 21:05 | 25.80046 | -80.30136 | 18 ft | 8 kts | 355° |
| 2026-05-04 21:05 | 25.80074 | -80.30115 | 17 ft | 3 kts | 66° |
| 2026-05-04 21:05 | 25.80075 | -80.30097 | 17 ft | 0 kts | 89° |
| 2026-05-04 21:06 | 25.80076 | -80.30037 | 16 ft | 27 kts | 88° |
| 2026-05-04 21:06 | 25.80091 | -80.29645 | 17 ft | 74 kts | 87° |
| 2026-05-04 21:06 | 25.80121 | -80.28924 | 25 ft | 112 kts | 88° |
| 2026-05-04 21:06 | 25.80166 | -80.27929 | 21 ft | 145 kts | 86° |
| 2026-05-04 21:07 | 25.80195 | -80.26825 | 504 ft | 135 kts | 91° |
| 2026-05-04 21:07 | 25.80026 | -80.25802 | 890 ft | 141 kts | 96° |
| 2026-05-04 21:07 | 25.79734 | -80.24689 | 1063 ft | 158 kts | 101° |
| 2026-05-04 21:07 | 25.79347 | -80.23515 | 1433 ft | 164 kts | 108° |
| 2026-05-04 21:08 | 25.78848 | -80.22385 | 1931 ft | 162 kts | 111° |
| 2026-05-04 21:08 | 25.78321 | -80.21265 | 2280 ft | 165 kts | 112° |
| 2026-05-04 21:08 | 25.77792 | -80.20125 | 2592 ft | 168 kts | 112° |
| 2026-05-04 21:08 | 25.77260 | -80.18967 | 2930 ft | 169 kts | 112° |
| 2026-05-04 21:09 | 25.76721 | -80.17785 | 3184 ft | 176 kts | 113° |
| 2026-05-04 21:09 | 25.76128 | -80.16560 | 3334 ft | 189 kts | 114° |
| 2026-05-04 21:09 | 25.75455 | -80.15226 | 3483 ft | 203 kts | 116° |
| 2026-05-04 21:09 | 25.74741 | -80.13804 | 3593 ft | 223 kts | 115° |
| 2026-05-04 21:10 | 25.74088 | -80.12171 | 3809 ft | 236 kts | 100° |
| 2026-05-04 21:10 | 25.74194 | -80.10360 | 3968 ft | 242 kts | 63° |
| 2026-05-04 21:10 | 25.75154 | -80.08789 | 4185 ft | 252 kts | 49° |
| 2026-05-04 21:10 | 25.76339 | -80.07309 | 4572 ft | 259 kts | 45° |
| 2026-05-04 21:11 | 25.77559 | -80.05812 | 5006 ft | 264 kts | 45° |
| 2026-05-04 21:11 | 25.78786 | -80.04291 | 5374 ft | 272 kts | 45° |
| 2026-05-04 21:11 | 25.80053 | -80.02702 | 5768 ft | 278 kts | 45° |
| 2026-05-04 21:11 | 25.81346 | -80.01073 | 6151 ft | 284 kts | 47° |
| 2026-05-04 21:12 | 25.82663 | -79.99407 | 6555 ft | 290 kts | 45° |
| 2026-05-04 21:12 | 25.83996 | -79.97717 | 7021 ft | 292 kts | 46° |
| 2026-05-04 21:12 | 25.85335 | -79.96017 | 7507 ft | 294 kts | 46° |
| 2026-05-04 21:12 | 25.86691 | -79.94294 | 7945 ft | 298 kts | 46° |
| 2026-05-04 21:13 | 25.88060 | -79.92553 | 8402 ft | 301 kts | 46° |
| 2026-05-04 21:13 | 25.89443 | -79.90793 | 8843 ft | 304 kts | 46° |
| 2026-05-04 21:13 | 25.90842 | -79.89013 | 9296 ft | 307 kts | 46° |
| 2026-05-04 21:13 | 25.92257 | -79.87212 | 9718 ft | 312 kts | 46° |
| 2026-05-04 21:14 | 25.93693 | -79.85383 | 10120 ft | 317 kts | 45° |
| 2026-05-04 21:14 | 25.95170 | -79.83504 | 10381 ft | 329 kts | 45° |
| 2026-05-04 21:14 | 25.96704 | -79.81551 | 10621 ft | 341 kts | 46° |
| 2026-05-04 21:14 | 25.98290 | -79.79531 | 10891 ft | 353 kts | 46° |
| 2026-05-04 21:15 | 25.99926 | -79.77444 | 11104 ft | 363 kts | 46° |
| 2026-05-04 21:15 | 26.01611 | -79.75293 | 11282 ft | 374 kts | 46° |
| 2026-05-04 21:15 | 26.03338 | -79.73086 | 11464 ft | 383 kts | 46° |
| 2026-05-04 21:15 | 26.05099 | -79.70836 | 11715 ft | 389 kts | 46° |
| 2026-05-04 21:16 | 26.06883 | -79.68553 | 12033 ft | 393 kts | 46° |
| 2026-05-04 21:16 | 26.08684 | -79.66248 | 12351 ft | 396 kts | 46° |
| 2026-05-04 21:16 | 26.10472 | -79.63897 | 12684 ft | 401 kts | 49° |
| 2026-05-04 21:16 | 26.12139 | -79.61390 | 13023 ft | 405 kts | 52° |
| 2026-05-04 21:17 | 26.13770 | -79.58828 | 13357 ft | 408 kts | 52° |
| 2026-05-04 21:17 | 26.15410 | -79.56238 | 13681 ft | 411 kts | 52° |
| 2026-05-04 21:17 | 26.17062 | -79.53629 | 13989 ft | 414 kts | 52° |
| 2026-05-04 21:17 | 26.18726 | -79.51002 | 14337 ft | 415 kts | 52° |
| 2026-05-04 21:18 | 26.20388 | -79.48378 | 14714 ft | 415 kts | 52° |
| 2026-05-04 21:18 | 26.22055 | -79.45747 | 15013 ft | 417 kts | 52° |
| 2026-05-04 21:18 | 26.23735 | -79.43095 | 15317 ft | 420 kts | 52° |
| 2026-05-04 21:18 | 26.25424 | -79.40427 | 15631 ft | 423 kts | 52° |
| 2026-05-04 21:19 | 26.27129 | -79.37747 | 15977 ft | 425 kts | 51° |
| 2026-05-04 21:19 | 26.29042 | -79.35244 | 16305 ft | 423 kts | 40° |
| 2026-05-04 21:19 | 26.31324 | -79.33199 | 16634 ft | 420 kts | 30° |
| 2026-05-04 21:19 | 26.33771 | -79.31409 | 16954 ft | 421 kts | 28° |
| 2026-05-04 21:20 | 26.36249 | -79.29659 | 17282 ft | 423 kts | 27° |
| 2026-05-04 21:20 | 26.38712 | -79.27920 | 17584 ft | 425 kts | 27° |
| 2026-05-04 21:20 | 26.41213 | -79.26149 | 17899 ft | 427 kts | 27° |
| 2026-05-04 21:20 | 26.43727 | -79.24362 | 18215 ft | 430 kts | 27° |
| 2026-05-04 21:21 | 26.46256 | -79.22562 | 18498 ft | 432 kts | 27° |
| 2026-05-04 21:21 | 26.48792 | -79.20754 | 18787 ft | 434 kts | 28° |
| 2026-05-04 21:21 | 26.51342 | -79.18935 | 19052 ft | 436 kts | 28° |
| 2026-05-04 21:21 | 26.53906 | -79.17104 | 19325 ft | 438 kts | 28° |
| 2026-05-04 21:22 | 26.56479 | -79.15265 | 19605 ft | 440 kts | 28° |
| 2026-05-04 21:22 | 26.59064 | -79.13417 | 19881 ft | 442 kts | 28° |
| 2026-05-04 21:22 | 26.61664 | -79.11556 | 20165 ft | 444 kts | 28° |
| 2026-05-04 21:22 | 26.64271 | -79.09690 | 20446 ft | 446 kts | 28° |
| 2026-05-04 21:23 | 26.66894 | -79.07811 | 20721 ft | 449 kts | 28° |
| 2026-05-04 21:23 | 26.69525 | -79.05925 | 20996 ft | 451 kts | 28° |
| 2026-05-04 21:23 | 26.72172 | -79.04027 | 21248 ft | 453 kts | 28° |
| 2026-05-04 21:23 | 26.74832 | -79.02119 | 21537 ft | 455 kts | 28° |
| 2026-05-04 21:24 | 26.77502 | -79.00202 | 21772 ft | 458 kts | 28° |
| 2026-05-04 21:24 | 26.80192 | -78.98270 | 22037 ft | 460 kts | 28° |
| 2026-05-04 21:24 | 26.82892 | -78.96329 | 22306 ft | 462 kts | 28° |
| 2026-05-04 21:24 | 26.85600 | -78.94381 | 22577 ft | 464 kts | 28° |
| 2026-05-04 21:25 | 26.88323 | -78.92421 | 22841 ft | 466 kts | 28° |
| 2026-05-04 21:25 | 26.91060 | -78.90451 | 23103 ft | 468 kts | 28° |
| 2026-05-04 21:25 | 26.93803 | -78.88475 | 23374 ft | 470 kts | 28° |
| 2026-05-04 21:25 | 26.96563 | -78.86485 | 23622 ft | 472 kts | 28° |
| 2026-05-04 21:26 | 26.99331 | -78.84489 | 23849 ft | 474 kts | 28° |
| 2026-05-04 21:26 | 27.02105 | -78.82486 | 24089 ft | 475 kts | 28° |
| 2026-05-04 21:26 | 27.04891 | -78.80475 | 24360 ft | 476 kts | 28° |
| 2026-05-04 21:26 | 27.07678 | -78.78460 | 24608 ft | 477 kts | 28° |
| 2026-05-04 21:27 | 27.10473 | -78.76440 | 24859 ft | 479 kts | 28° |
| 2026-05-04 21:27 | 27.13277 | -78.74412 | 25096 ft | 480 kts | 28° |
| 2026-05-04 21:27 | 27.16088 | -78.72376 | 25339 ft | 481 kts | 28° |
| 2026-05-04 21:27 | 27.18908 | -78.70334 | 25581 ft | 483 kts | 27° |
| 2026-05-04 21:28 | 27.21735 | -78.68285 | 25810 ft | 484 kts | 27° |
| 2026-05-04 21:28 | 27.24570 | -78.66229 | 26018 ft | 486 kts | 27° |
| 2026-05-04 21:28 | 27.27352 | -78.64032 | 26234 ft | 492 kts | 34° |
| 2026-05-04 21:28 | 27.29860 | -78.61375 | 26455 ft | 500 kts | 44° |
| 2026-05-04 21:29 | 27.32100 | -78.58360 | 26674 ft | 503 kts | 47° |
| 2026-05-04 21:29 | 27.34274 | -78.55264 | 26907 ft | 505 kts | 48° |
| 2026-05-04 21:29 | 27.36447 | -78.52151 | 27130 ft | 507 kts | 48° |
| 2026-05-04 21:29 | 27.38629 | -78.49026 | 27340 ft | 509 kts | 48° |
| 2026-05-04 21:30 | 27.40819 | -78.45895 | 27558 ft | 510 kts | 47° |
| 2026-05-04 21:30 | 27.43016 | -78.42756 | 27770 ft | 512 kts | 47° |
| 2026-05-04 21:30 | 27.45223 | -78.39602 | 27985 ft | 513 kts | 47° |